createdAt,value
2022-11-11T00:00:07.459Z,5.20
2022-11-11T00:02:56.902Z,5.75
2022-11-11T00:05:44.212Z,4.82
2022-11-11T00:08:31.340Z,4.72
2022-11-11T00:11:18.702Z,5.15
2022-11-11T00:14:06.032Z,5.68
2022-11-11T00:17:11.794Z,5.75
2022-11-11T00:20:18.821Z,4.50
2022-11-11T00:23:23.381Z,6.13
2022-11-11T00:26:38.123Z,4.88
2022-11-11T00:29:21.074Z,5.38
2022-11-11T00:32:27.769Z,6.38
2022-11-11T00:35:32.962Z,6.05
2022-11-11T00:38:34.360Z,6.82
2022-11-11T00:41:23.860Z,7.25
2022-11-11T00:44:10.793Z,7.05
2022-11-11T00:47:15.713Z,5.50
2022-11-11T00:50:23.099Z,6.07
2022-11-11T00:53:13.156Z,5.60
2022-11-11T00:56:00.397Z,5.63
2022-11-11T00:58:48.055Z,6.15
2022-11-11T01:01:35.632Z,5.60
2022-11-11T01:04:23.495Z,5.00
2022-11-11T01:07:11.538Z,5.22
2022-11-11T01:09:58.963Z,6.55
2022-11-11T01:12:45.699Z,5.35
2022-11-11T01:15:35.206Z,5.45
2022-11-11T01:18:25.612Z,5.00
2022-11-11T01:21:15.142Z,5.30
2022-11-11T01:24:03.409Z,5.18
2022-11-11T01:26:50.755Z,4.55
2022-11-11T01:29:38.091Z,3.33
2022-11-11T01:32:24.978Z,4.43
2022-11-11T01:35:12.427Z,3.90
2022-11-11T01:37:59.692Z,4.15
2022-11-11T01:40:50.772Z,3.33
2022-11-11T01:43:37.599Z,3.90
2022-11-11T01:46:36.158Z,4.15
2022-11-11T01:49:31.695Z,5.00
2022-11-11T01:52:25.204Z,4.72
2022-11-11T01:55:19.182Z,4.95
2022-11-11T01:58:12.926Z,4.47
2022-11-11T02:01:01.501Z,4.15
2022-11-11T02:04:05.328Z,5.05
2022-11-11T02:06:55.834Z,5.70
2022-11-11T02:09:49.271Z,5.45
2022-11-11T02:12:54.100Z,5.07
2022-11-11T02:15:42.539Z,5.50
2022-11-11T02:18:31.527Z,5.53
2022-11-11T02:21:26.960Z,5.20
2022-11-11T02:24:20.738Z,5.60
2022-11-11T02:27:12.273Z,5.30
2022-11-11T02:30:02.261Z,5.22
2022-11-11T02:32:51.971Z,4.70
2022-11-11T02:35:42.051Z,5.53
2022-11-11T02:38:30.046Z,4.78
2022-11-11T02:41:36.200Z,4.60
2022-11-11T02:44:22.950Z,4.60
2022-11-11T02:47:10.344Z,4.38
2022-11-11T02:49:57.551Z,4.43
2022-11-11T02:52:44.968Z,5.30
2022-11-11T02:55:31.977Z,5.47
2022-11-11T02:58:20.514Z,5.78
2022-11-11T03:01:07.536Z,4.70
2022-11-11T03:03:54.391Z,5.95
2022-11-11T03:06:41.669Z,5.35
2022-11-11T03:09:29.407Z,4.95
2022-11-11T03:12:16.723Z,5.50
2022-11-11T03:15:06.637Z,4.80
2022-11-11T03:17:52.819Z,4.57
2022-11-11T03:20:57.820Z,4.72
2022-11-11T03:23:45.184Z,4.88
2022-11-11T03:26:32.503Z,4.97
2022-11-11T03:29:19.107Z,5.22
2022-11-11T03:32:08.141Z,5.60
2022-11-11T03:34:55.142Z,5.53
2022-11-11T03:37:59.418Z,5.97
2022-11-11T03:40:47.740Z,5.30
2022-11-11T03:43:36.470Z,5.53
2022-11-11T03:46:23.448Z,5.90
2022-11-11T03:49:11.444Z,4.78
2022-11-11T03:51:58.354Z,5.18
2022-11-11T03:54:44.979Z,4.90
2022-11-11T03:57:32.230Z,5.07
2022-11-11T04:00:22.697Z,5.40
2022-11-11T04:03:30.876Z,5.03
2022-11-11T04:06:36.602Z,4.65
2022-11-11T04:12:29.353Z,4.70
2022-11-11T04:15:34.017Z,4.47
2022-11-11T04:18:42.643Z,4.68
2022-11-11T04:21:45.338Z,3.20
2022-11-11T04:24:50.408Z,3.70
2022-11-11T04:27:37.589Z,4.22
2022-11-11T04:30:23.731Z,4.38
2022-11-11T04:33:11.011Z,3.95
2022-11-11T04:35:58.215Z,4.57
2022-11-11T04:39:04.365Z,3.78
2022-11-11T04:42:07.806Z,4.07
2022-11-11T04:45:13.137Z,4.07
2022-11-11T04:48:01.860Z,4.05
2022-11-11T04:50:48.850Z,4.40
2022-11-11T04:53:36.051Z,4.45
2022-11-11T04:56:41.927Z,3.63
2022-11-11T04:59:29.033Z,4.43
2022-11-11T05:02:33.524Z,3.67
2022-11-11T05:05:20.614Z,3.53
2022-11-11T05:08:26.498Z,4.72
2022-11-11T05:11:14.025Z,4.18
2022-11-11T05:14:22.103Z,3.97
2022-11-11T05:17:28.559Z,6.32
2022-11-11T05:20:38.547Z,5.32
2022-11-11T05:23:46.882Z,5.00
2022-11-11T05:26:33.170Z,5.45
2022-11-11T05:29:21.532Z,6.47
2022-11-11T05:32:09.564Z,6.20
2022-11-11T05:34:56.395Z,6.38
2022-11-11T05:37:43.956Z,5.20
2022-11-11T05:40:30.953Z,4.90
2022-11-11T05:43:17.599Z,3.97
2022-11-11T05:46:06.299Z,4.82
2022-11-11T05:49:10.979Z,5.75
2022-11-11T05:51:58.456Z,5.85
2022-11-11T05:54:46.283Z,4.68
2022-11-11T05:57:33.166Z,4.40
2022-11-11T06:00:20.729Z,4.20
2022-11-11T06:03:09.098Z,2.78
2022-11-11T06:05:56.292Z,4.13
2022-11-11T06:08:43.690Z,3.75
2022-11-11T06:11:32.898Z,3.22
2022-11-11T06:14:20.196Z,3.20
2022-11-11T06:17:07.588Z,3.13
2022-11-11T06:19:55.755Z,4.38
2022-11-11T06:22:57.936Z,3.88
2022-11-11T06:26:02.777Z,4.57
2022-11-11T06:28:52.706Z,5.70
2022-11-11T06:31:39.694Z,5.13
2022-11-11T06:34:26.979Z,5.60
2022-11-11T06:37:15.038Z,5.88
2022-11-11T06:40:02.353Z,5.63
2022-11-11T06:42:49.422Z,6.30
2022-11-11T06:45:37.215Z,6.32
2022-11-11T06:48:26.443Z,7.25
2022-11-11T06:51:14.727Z,5.20
2022-11-11T06:54:02.817Z,5.55
2022-11-11T06:56:50.078Z,4.80
2022-11-11T06:59:37.252Z,4.68
2022-11-11T07:02:24.474Z,5.07
2022-11-11T07:05:11.499Z,5.13
2022-11-11T07:07:58.478Z,4.50
2022-11-11T07:10:49.934Z,4.93
2022-11-11T07:13:37.054Z,5.30
2022-11-11T07:16:24.178Z,4.38
2022-11-11T07:19:11.193Z,3.88
2022-11-11T07:21:58.790Z,4.05
2022-11-11T07:24:45.990Z,3.72
2022-11-11T07:27:37.189Z,4.15
2022-11-11T07:30:24.158Z,4.93
2022-11-11T07:33:11.605Z,5.05
2022-11-11T07:35:58.470Z,5.15
2022-11-11T07:38:45.633Z,5.32
2022-11-11T07:41:32.749Z,5.20
2022-11-11T07:44:21.216Z,5.05
2022-11-11T07:47:08.659Z,6.07
2022-11-11T07:49:55.885Z,6.80
2022-11-11T07:52:48.839Z,8.02
2022-11-11T07:55:36.054Z,6.38
2022-11-11T07:58:23.425Z,5.97
2022-11-11T08:01:11.867Z,6.82
2022-11-11T08:03:58.952Z,5.20
2022-11-11T08:06:45.990Z,4.75
2022-11-11T08:09:33.232Z,6.35
2022-11-11T08:12:38.205Z,6.93
2022-11-11T08:15:25.338Z,5.57
2022-11-11T08:18:13.648Z,7.93
2022-11-11T08:21:00.993Z,6.22
2022-11-11T08:24:48.700Z,6.30
2022-11-11T08:26:54.910Z,4.93
2022-11-11T08:29:42.009Z,5.72
2022-11-11T08:32:29.437Z,4.53
2022-11-11T08:35:17.753Z,5.45
2022-11-11T08:38:04.925Z,6.95
2022-11-11T08:40:52.286Z,5.30
2022-11-11T08:43:39.368Z,6.93
2022-11-11T08:46:26.876Z,6.70
2022-11-11T08:49:14.360Z,7.35
2022-11-11T08:52:02.472Z,7.13
2022-11-11T08:54:49.415Z,6.50
2022-11-11T08:57:36.107Z,6.32
2022-11-11T09:00:23.994Z,7.50
2022-11-11T09:03:12.896Z,8.10
2022-11-11T09:06:00.150Z,8.20
2022-11-11T09:08:48.160Z,8.35
2022-11-11T09:11:36.273Z,8.45
2022-11-11T09:14:23.431Z,8.95
2022-11-11T09:17:10.302Z,8.02
2022-11-11T09:19:57.393Z,8.25
2022-11-11T09:22:45.145Z,9.65
2022-11-11T09:25:33.018Z,9.88
2022-11-11T09:28:19.948Z,8.55
2022-11-11T09:31:29.964Z,10.23
2022-11-11T09:34:14.327Z,9.85
2022-11-11T09:37:01.691Z,10.93
2022-11-11T09:39:48.501Z,12.48
2022-11-11T09:42:42.471Z,9.90
2022-11-11T09:45:46.092Z,13.27
2022-11-11T09:48:53.243Z,12.57
2022-11-11T09:51:47.754Z,13.75
2022-11-11T09:54:42.353Z,13.43
2022-11-11T09:57:39.657Z,12.27
2022-11-11T10:00:30.424Z,14.02
2022-11-11T10:03:20.885Z,13.18
2022-11-11T10:06:17.298Z,14.75
2022-11-11T10:09:18.630Z,14.13
2022-11-11T10:12:15.223Z,16.05
2022-11-11T10:15:12.284Z,15.18
2022-11-11T10:18:19.488Z,13.35
2022-11-11T10:21:14.604Z,15.60
2022-11-11T10:24:07.273Z,17.95
2022-11-11T10:26:54.326Z,16.70
2022-11-11T10:29:45.296Z,15.15
2022-11-11T10:32:36.271Z,21.02
2022-11-11T10:35:26.345Z,16.15
2022-11-11T10:38:32.959Z,21.33
2022-11-11T10:41:27.311Z,16.75
2022-11-11T10:44:22.641Z,22.45
2022-11-11T10:47:21.114Z,20.33
2022-11-11T10:50:20.206Z,17.85
2022-11-11T10:53:15.950Z,21.52
2022-11-11T10:59:02.556Z,22.55
2022-11-11T11:01:57.384Z,20.52
2022-11-11T11:04:50.718Z,21.77
2022-11-11T11:07:45.095Z,22.58
2022-11-11T11:10:39.204Z,20.48
2022-11-11T11:13:37.393Z,20.77
2022-11-11T11:16:32.181Z,19.63
2022-11-11T11:19:20.490Z,18.33
2022-11-11T11:22:07.540Z,19.77
2022-11-11T11:25:12.007Z,23.88
2022-11-11T11:28:11.593Z,28.13
2022-11-11T11:31:01.356Z,25.30
2022-11-11T11:33:55.102Z,28.90
2022-11-11T11:36:42.282Z,24.17
2022-11-11T11:39:34.927Z,22.33
2022-11-11T11:42:35.103Z,22.58
2022-11-11T11:45:26.006Z,20.42
2022-11-11T11:48:41.252Z,22.73
2022-11-11T11:51:37.306Z,24.20
2022-11-11T11:54:52.077Z,22.38
2022-11-11T11:57:57.073Z,23.55
2022-11-11T12:00:57.708Z,21.85
2022-11-11T12:04:43.716Z,21.17
2022-11-11T12:08:02.171Z,19.38
2022-11-11T12:10:57.015Z,20.58
2022-11-11T12:14:03.163Z,19.48
2022-11-11T12:16:59.841Z,21.17
2022-11-11T12:19:58.651Z,20.85
2022-11-11T12:23:09.222Z,20.15
2022-11-11T12:26:08.679Z,22.50
2022-11-11T12:29:17.010Z,20.67
2022-11-11T12:32:25.801Z,20.45
2022-11-11T12:35:27.556Z,21.15
2022-11-11T12:38:33.956Z,18.65
2022-11-11T12:41:39.154Z,17.20
2022-11-11T12:44:46.261Z,19.65
2022-11-11T12:47:45.248Z,20.50
2022-11-11T12:50:40.590Z,21.02
2022-11-11T12:53:40.578Z,21.48
2022-11-11T12:56:37.930Z,19.15
2022-11-11T12:59:42.356Z,22.83
2022-11-11T13:03:07.345Z,22.15
2022-11-11T13:06:06.770Z,18.60
2022-11-11T13:09:11.422Z,19.70
2022-11-11T13:12:07.375Z,20.73
2022-11-11T13:15:06.922Z,19.02
2022-11-11T13:17:54.612Z,20.70
2022-11-11T13:20:50.967Z,20.48
2022-11-11T13:23:37.891Z,23.13
2022-11-11T13:26:35.245Z,22.85
2022-11-11T13:30:05.570Z,22.95
2022-11-11T13:32:57.415Z,20.65
2022-11-11T13:35:47.540Z,19.38
2022-11-11T13:38:39.490Z,21.10
2022-11-11T13:41:30.600Z,21.98
2022-11-11T13:44:24.915Z,22.63
2022-11-11T13:47:22.316Z,23.77
2022-11-11T13:50:15.774Z,22.85
2022-11-11T13:53:06.143Z,20.23
2022-11-11T13:56:01.231Z,22.35
2022-11-11T13:58:50.819Z,20.85
2022-11-11T14:01:42.951Z,21.45
2022-11-11T14:04:32.421Z,18.38
2022-11-11T14:07:57.714Z,19.40
2022-11-11T14:10:57.872Z,19.05
2022-11-11T14:13:44.558Z,18.15
2022-11-11T14:17:02.565Z,19.45
2022-11-11T14:19:50.586Z,20.15
2022-11-11T14:22:37.418Z,20.95
2022-11-11T14:25:28.412Z,21.77
2022-11-11T14:28:25.182Z,21.48
2022-11-11T14:32:18.381Z,24.15
2022-11-11T14:35:28.643Z,23.30
2022-11-11T14:38:36.647Z,19.23
2022-11-11T14:41:50.057Z,20.13
2022-11-11T14:44:44.647Z,21.92
2022-11-11T14:47:36.547Z,21.60
2022-11-11T14:50:45.912Z,23.88
2022-11-11T14:53:39.383Z,23.00
2022-11-11T14:56:27.816Z,25.42
2022-11-11T14:59:19.518Z,25.10
2022-11-11T15:02:20.168Z,23.30
2022-11-11T15:05:17.243Z,22.30
2022-11-11T15:08:22.439Z,21.75
2022-11-11T15:11:28.907Z,19.33
2022-11-11T15:14:28.538Z,19.80
2022-11-11T15:17:27.717Z,21.45
2022-11-11T15:20:56.688Z,21.35
2022-11-11T15:23:53.552Z,17.75
2022-11-11T15:26:50.712Z,25.25
2022-11-11T15:30:07.395Z,20.70
2022-11-11T15:33:09.980Z,20.38
2022-11-11T15:36:10.675Z,22.58
2022-11-11T15:39:00.777Z,22.17
2022-11-11T15:41:52.438Z,21.60
2022-11-11T15:44:39.499Z,21.27
2022-11-11T15:47:33.194Z,21.45
2022-11-11T15:50:36.889Z,19.73
2022-11-11T15:53:26.865Z,20.60
2022-11-11T15:56:30.251Z,20.73
2022-11-11T15:59:20.609Z,21.70
2022-11-11T16:02:15.186Z,20.38
2022-11-11T16:05:08.257Z,23.08
2022-11-11T16:07:58.814Z,22.55
2022-11-11T16:10:45.782Z,21.45
2022-11-11T16:13:37.946Z,21.70
2022-11-11T16:16:29.259Z,21.17
2022-11-11T16:19:29.166Z,18.80
2022-11-11T16:22:21.448Z,21.58
2022-11-11T16:25:18.081Z,22.13
2022-11-11T16:28:05.868Z,23.98
2022-11-11T16:30:53.906Z,24.10
2022-11-11T16:33:40.967Z,22.85
2022-11-11T16:36:28.151Z,20.70
2022-11-11T16:39:16.350Z,22.02
2022-11-11T16:42:05.390Z,23.02
2022-11-11T16:44:58.273Z,21.25
2022-11-11T16:47:48.947Z,21.95
2022-11-11T16:50:54.792Z,25.23
2022-11-11T16:53:46.299Z,20.63
2022-11-11T16:56:34.216Z,21.83
2022-11-11T16:59:25.697Z,23.35
2022-11-11T17:02:20.331Z,23.10
2022-11-11T17:05:10.537Z,25.08
2022-11-11T17:07:57.547Z,28.02
2022-11-11T17:10:44.680Z,25.27
2022-11-11T17:13:36.731Z,23.95
2022-11-11T17:16:26.855Z,20.50
2022-11-11T17:19:14.170Z,25.80
2022-11-11T17:22:10.518Z,22.80
2022-11-11T17:24:57.476Z,28.80
2022-11-11T17:27:44.978Z,26.20
2022-11-11T17:30:31.539Z,23.30
2022-11-11T17:33:18.788Z,24.42
2022-11-11T17:36:06.828Z,26.73
2022-11-11T17:38:55.233Z,26.95
2022-11-11T17:41:42.191Z,25.10
2022-11-11T17:44:29.144Z,26.10
2022-11-11T17:47:15.756Z,23.40
2022-11-11T17:50:03.123Z,22.15
2022-11-11T17:52:49.984Z,22.73
2022-11-11T17:55:38.087Z,24.38
2022-11-11T17:58:25.277Z,21.70
2022-11-11T18:01:15.151Z,22.20
2022-11-11T18:04:04.504Z,19.52
2022-11-11T18:06:51.847Z,21.38
2022-11-11T18:09:38.915Z,21.92
2022-11-11T18:12:26.955Z,24.35
2022-11-11T18:15:14.354Z,22.17
2022-11-11T18:18:01.473Z,20.88
2022-11-11T18:20:48.433Z,23.13
2022-11-11T18:23:37.847Z,20.13
2022-11-11T18:26:25.472Z,25.52
2022-11-11T18:29:13.744Z,20.00
2022-11-11T18:32:01.362Z,22.77
2022-11-11T18:34:48.625Z,21.50
2022-11-11T18:37:38.109Z,20.73
2022-11-11T18:40:27.746Z,19.77
2022-11-11T18:43:15.066Z,22.45
2022-11-11T18:46:06.678Z,21.48
2022-11-11T18:48:55.567Z,22.88
2022-11-11T18:51:43.042Z,22.10
2022-11-11T18:54:30.662Z,22.98
2022-11-11T18:57:18.319Z,21.65
2022-11-11T19:00:06.367Z,21.65
2022-11-11T19:02:54.715Z,21.70
2022-11-11T19:05:41.876Z,20.85
2022-11-11T19:08:29.435Z,21.40
2022-11-11T19:11:16.932Z,21.10
2022-11-11T19:14:04.638Z,20.63
2022-11-11T19:16:51.855Z,20.08
2022-11-11T19:19:40.300Z,21.05
2022-11-11T19:22:27.523Z,21.35
2022-11-11T19:25:14.506Z,19.95
2022-11-11T19:28:01.590Z,21.38
2022-11-11T19:30:48.358Z,19.92
2022-11-11T19:33:36.777Z,16.23
2022-11-11T19:36:28.415Z,18.42
2022-11-11T19:39:15.926Z,18.13
2022-11-11T19:42:03.154Z,21.05
2022-11-11T19:44:50.266Z,21.02
2022-11-11T19:47:37.214Z,19.30
2022-11-11T19:50:24.503Z,19.48
2022-11-11T19:53:14.699Z,19.33
2022-11-11T19:56:03.874Z,20.40
2022-11-11T19:58:51.025Z,17.80
2022-11-11T20:01:38.364Z,17.17
2022-11-11T20:04:25.620Z,17.48
2022-11-11T20:07:12.703Z,18.08
2022-11-11T20:10:01.294Z,16.67
2022-11-11T20:12:48.336Z,15.05
2022-11-11T20:15:36.250Z,15.63
2022-11-11T20:18:23.206Z,15.20
2022-11-11T20:21:10.386Z,15.50
2022-11-11T20:23:57.384Z,15.10
2022-11-11T20:26:48.588Z,15.73
2022-11-11T20:29:38.203Z,17.15
2022-11-11T20:32:25.430Z,17.85
2022-11-11T20:35:12.454Z,19.27
2022-11-11T20:37:59.926Z,18.15
2022-11-11T20:40:47.138Z,16.55
2022-11-11T20:43:36.754Z,16.23
2022-11-11T20:46:23.998Z,15.18
2022-11-11T20:49:11.084Z,15.93
2022-11-11T20:51:57.653Z,17.33
2022-11-11T20:54:44.771Z,15.55
2022-11-11T20:57:33.920Z,15.18
2022-11-11T21:00:22.127Z,16.48
2022-11-11T21:03:09.298Z,15.35
2022-11-11T21:06:06.004Z,17.42
2022-11-11T21:08:54.363Z,17.00
2022-11-11T21:11:41.355Z,14.90
2022-11-11T21:14:28.633Z,16.02
2022-11-11T21:17:16.872Z,14.85
2022-11-11T21:20:03.473Z,14.20
2022-11-11T21:22:53.344Z,15.32
2022-11-11T21:25:40.546Z,13.32
2022-11-11T21:28:27.575Z,14.40
2022-11-11T21:31:19.880Z,13.85
2022-11-11T21:34:11.155Z,15.90
2022-11-11T21:36:58.196Z,17.55
2022-11-11T21:39:45.286Z,15.40
2022-11-11T21:42:32.555Z,16.52
2022-11-11T21:45:19.084Z,15.55
2022-11-11T21:48:07.042Z,13.60
2022-11-11T21:51:01.280Z,15.27
2022-11-11T21:53:52.518Z,13.68
2022-11-11T21:56:40.145Z,14.15
2022-11-11T21:59:27.144Z,12.40
2022-11-11T22:02:13.747Z,13.43
2022-11-11T22:05:01.735Z,13.45
2022-11-11T22:07:49.991Z,12.95
2022-11-11T22:10:37.306Z,13.38
2022-11-11T22:13:24.248Z,14.35
2022-11-11T22:16:13.094Z,13.35
2022-11-11T22:19:03.707Z,10.52
2022-11-11T22:21:50.671Z,10.30
2022-11-11T22:24:38.835Z,11.27
2022-11-11T22:27:25.806Z,11.07
2022-11-11T22:30:13.802Z,11.40
2022-11-11T22:33:00.819Z,12.60
2022-11-11T22:35:47.997Z,11.27
2022-11-11T22:38:36.168Z,15.60
2022-11-11T22:41:27.246Z,12.30
2022-11-11T22:44:14.716Z,13.05
2022-11-11T22:47:01.991Z,13.75
2022-11-11T22:49:48.873Z,10.77
2022-11-11T22:52:36.059Z,12.45
2022-11-11T22:55:22.999Z,11.25
2022-11-11T22:58:11.599Z,11.00
2022-11-11T23:01:03.742Z,10.57
2022-11-11T23:03:52.554Z,10.10
2022-11-11T23:06:41.053Z,11.52
2022-11-11T23:09:28.222Z,10.40
2022-11-11T23:12:15.271Z,10.95
2022-11-11T23:15:03.351Z,11.20
2022-11-11T23:17:50.178Z,12.93
2022-11-11T23:20:37.095Z,13.07
2022-11-11T23:23:25.192Z,11.20
2022-11-11T23:26:14.599Z,13.57
2022-11-11T23:29:01.886Z,10.95
2022-11-11T23:31:49.900Z,10.05
2022-11-11T23:34:37.087Z,9.48
2022-11-11T23:37:24.112Z,8.95
2022-11-11T23:40:13.041Z,9.02
2022-11-11T23:43:00.670Z,9.18
2022-11-11T23:45:47.444Z,9.90
2022-11-11T23:48:36.721Z,7.70
2022-11-11T23:51:24.149Z,9.60
2022-11-11T23:54:11.369Z,7.93
2022-11-11T23:56:58.405Z,7.65
2022-11-11T23:59:45.725Z,7.85
